Time;durP1;ratioP1;P1;durP2;ratioP2;P2;SDS_P1;SDS_P2;PMS_P1;PMS_P2;Temp;Humidity;BMP_temperature;BMP_pressure;BME280_temperature;BME280_humidity;BME280_pressure;Samples;Min_cycle;Max_cycle;Signal;HPM_P1;HPM_P2
2022/01/07 00:00:50;;;;;;;7.72;2.58;;;;;;;5.83;55.97;101335.44;5079050;28;20119;-76
2022/01/07 00:03:15;;;;;;;10.50;2.95;;;;;;;6.20;56.77;101326.22;5080936;28;20491;-77
2022/01/07 00:05:42;;;;;;;10.52;4.45;;;;;;;6.04;56.41;101328.69;5084637;28;20027;-76
2022/01/07 00:08:08;;;;;;;10.00;4.30;;;;;;;5.78;57.61;101325.09;5080562;28;20031;-76
2022/01/07 00:10:33;;;;;;;9.00;4.10;;;;;;;6.10;56.01;101317.56;5078037;28;20032;-76
2022/01/07 00:12:59;;;;;;;13.55;4.07;;;;;;;6.04;57.69;101310.66;5062200;28;20069;-76
2022/01/07 00:15:24;;;;;;;16.45;5.13;;;;;;;6.09;57.22;101308.13;5083493;28;20076;-76
2022/01/07 00:17:50;;;;;;;12.85;5.13;;;;;;;5.98;57.00;101310.59;5084176;28;20055;-76
2022/01/07 00:20:16;;;;;;;12.40;4.90;;;;;;;5.97;56.52;101308.03;5081272;28;20032;-76
2022/01/07 00:22:42;;;;;;;9.80;4.13;;;;;;;6.14;56.62;101301.25;5084304;28;20036;-76
2022/01/07 00:25:10;;;;;;;11.40;4.10;;;;;;;6.19;56.44;101293.56;5058170;28;20032;-76
2022/01/07 00:27:36;;;;;;;8.73;3.70;;;;;;;5.90;56.77;101294.25;5080180;28;20044;-82
2022/01/07 00:30:03;;;;;;;8.23;3.70;;;;;;;5.99;57.20;101293.44;5084295;28;20040;-82
2022/01/07 00:32:28;;;;;;;9.20;3.28;;;;;;;5.89;57.06;101300.22;5081728;28;20040;-82
2022/01/07 00:34:53;;;;;;;6.82;3.17;;;;;;;5.98;57.22;101308.03;5080122;28;20366;-83
2022/01/07 00:37:19;;;;;;;9.23;3.97;;;;;;;6.03;56.73;101298.63;5083310;28;20072;-83
2022/01/07 00:39:45;;;;;;;7.90;3.45;;;;;;;5.94;57.47;101290.84;5079219;28;20071;-82
2022/01/07 00:42:11;;;;;;;12.93;3.53;;;;;;;6.02;56.81;101285.72;5084410;28;20107;-83
2022/01/07 00:44:37;;;;;;;10.07;3.35;;;;;;;5.76;57.52;101279.53;5085634;28;20437;-82
2022/01/07 00:47:04;;;;;;;9.25;3.35;;;;;;;5.76;57.37;101276.97;5084730;28;20389;-83
2022/01/07 00:49:29;;;;;;;11.55;3.20;;;;;;;6.11;56.27;101267.72;5082681;28;20040;-82
2022/01/07 00:51:56;;;;;;;8.13;3.13;;;;;;;6.16;56.19;101255.69;5078543;28;20051;-82
2022/01/07 00:54:22;;;;;;;7.32;3.03;;;;;;;6.15;57.03;101251.41;5060918;28;20043;-82
2022/01/07 00:56:47;;;;;;;10.02;3.45;;;;;;;6.17;56.17;101247.09;5082216;28;20373;-83
2022/01/07 00:59:13;;;;;;;6.75;3.35;;;;;;;6.23;56.05;101246.25;5081220;28;20032;-83
2022/01/07 01:01:38;;;;;;;6.68;3.20;;;;;;;5.98;56.85;101237.53;5079841;28;20049;-83
2022/01/07 01:04:04;;;;;;;9.02;3.35;;;;;;;5.99;56.64;101228.97;5084543;28;20036;-82
2022/01/07 01:06:30;;;;;;;6.35;3.63;;;;;;;6.21;55.95;101229.94;5085959;28;20064;-82
2022/01/07 01:08:55;;;;;;;7.85;3.67;;;;;;;6.19;55.58;101219.59;5088792;28;20077;-83
2022/01/07 01:11:21;;;;;;;10.60;3.92;;;;;;;6.08;55.69;101220.41;5067752;28;20199;-83
2022/01/07 01:13:46;;;;;;;7.20;3.45;;;;;;;6.11;56.50;101215.25;5081522;28;20106;-83
2022/01/07 01:16:11;;;;;;;11.10;4.22;;;;;;;6.15;56.53;101212.72;5082430;28;20056;-83
2022/01/07 01:18:37;;;;;;;9.27;3.80;;;;;;;5.97;56.97;101210.91;5083862;28;20523;-82
2022/01/07 01:21:03;;;;;;;9.25;3.60;;;;;;;6.16;55.55;101206.69;5083285;28;20024;-83
2022/01/07 01:23:29;;;;;;;9.38;3.08;;;;;;;5.93;56.63;101206.59;5067716;28;20036;-74
2022/01/07 01:25:54;;;;;;;10.13;3.15;;;;;;;5.96;56.88;101203.16;5083913;28;20123;-74
2022/01/07 01:28:20;;;;;;;5.15;2.92;;;;;;;5.82;56.21;101192.78;5062303;28;20036;-73
2022/01/07 01:30:45;;;;;;;9.00;3.58;;;;;;;6.01;55.68;101192.00;5082599;28;20039;-74
2022/01/07 01:33:12;;;;;;;8.90;3.10;;;;;;;5.96;55.74;101196.28;5082412;28;20039;-74
2022/01/07 01:35:41;;;;;;;8.38;3.22;;;;;;;6.10;55.92;101198.91;5081948;28;20135;-74
2022/01/07 01:38:06;;;;;;;5.35;3.22;;;;;;;6.09;55.36;101188.59;5086852;28;20036;-74
2022/01/07 01:40:32;;;;;;;7.32;2.65;;;;;;;5.75;56.07;101187.56;5083044;28;20496;-74
2022/01/07 01:42:58;;;;;;;7.40;2.50;;;;;;;6.15;55.91;101186.91;5084610;28;20640;-74
2022/01/07 01:45:24;;;;;;;4.38;2.50;;;;;;;5.98;56.41;101188.53;5084858;28;20043;-74
2022/01/07 01:47:52;;;;;;;4.60;2.80;;;;;;;6.14;54.88;101181.75;5086478;28;20035;-74
2022/01/07 01:50:18;;;;;;;6.90;2.72;;;;;;;6.23;55.30;101182.63;5086675;28;20040;-74
2022/01/07 01:52:46;;;;;;;9.38;3.25;;;;;;;5.96;55.56;101178.25;5078556;28;20047;-74
2022/01/07 01:55:14;;;;;;;7.43;2.20;;;;;;;6.08;55.27;101163.66;5080370;28;20531;-74
2022/01/07 01:57:40;;;;;;;6.43;3.03;;;;;;;6.20;55.71;101163.72;5079158;28;20515;-74
2022/01/07 02:00:09;;;;;;;6.30;3.08;;;;;;;5.90;56.06;101157.59;5084284;28;20098;-74
2022/01/07 02:02:36;;;;;;;5.70;2.33;;;;;;;6.15;56.20;101161.13;5083268;28;20040;-74
2022/01/07 02:05:03;;;;;;;5.47;2.05;;;;;;;5.95;56.48;101153.28;5068294;28;20500;-74
2022/01/07 02:07:29;;;;;;;7.20;2.70;;;;;;;6.10;55.46;101149.06;5087756;28;20071;-74
2022/01/07 02:09:55;;;;;;;9.02;2.50;;;;;;;5.97;56.21;101153.31;5067317;28;20125;-74
2022/01/07 02:12:21;;;;;;;8.30;2.88;;;;;;;6.19;54.85;101152.53;5086198;28;20047;-74
2022/01/07 02:14:52;;;;;;;5.65;2.78;;;;;;;5.96;55.55;101151.59;5086556;28;21184;-74
2022/01/07 02:17:17;;;;;;;4.75;2.67;;;;;;;5.93;55.31;101141.25;5083532;28;20071;-74
2022/01/07 02:19:43;;;;;;;7.72;3.65;;;;;;;6.06;56.34;101140.47;5084880;28;20698;-74
2022/01/07 02:22:08;;;;;;;5.03;2.30;;;;;;;5.99;55.01;101124.09;5089723;28;20147;-74
2022/01/07 02:24:35;;;;;;;16.40;3.08;;;;;;;6.02;55.78;101123.25;5080518;28;20028;-74
2022/01/07 02:27:02;;;;;;;5.43;2.38;;;;;;;5.85;56.50;101123.19;5085537;28;20036;-74
2022/01/07 02:29:27;;;;;;;5.38;2.45;;;;;;;6.00;55.38;101119.81;5085704;28;20111;-74
2022/01/07 02:31:53;;;;;;;6.85;2.67;;;;;;;6.01;54.65;101114.63;5081784;28;20131;-74
2022/01/07 02:34:18;;;;;;;4.85;2.10;;;;;;;6.02;55.17;101118.09;5085256;28;20089;-74
2022/01/07 02:36:44;;;;;;;9.48;2.00;;;;;;;5.97;56.02;101110.34;5066900;28;21232;-74
2022/01/07 02:39:09;;;;;;;5.32;2.00;;;;;;;6.00;55.51;101105.19;5081741;28;20083;-74
2022/01/07 02:41:35;;;;;;;3.95;1.95;;;;;;;5.93;56.01;101100.88;5081340;28;20047;-74
2022/01/07 02:44:00;;;;;;;6.28;2.85;;;;;;;5.99;56.21;101105.19;5084748;28;20597;-81
2022/01/07 02:46:26;;;;;;;5.70;1.98;;;;;;;6.01;55.74;101099.16;5085749;28;20137;-81
2022/01/07 02:48:51;;;;;;;7.13;2.10;;;;;;;5.98;55.44;101093.13;5082457;28;20036;-80
2022/01/07 02:51:17;;;;;;;6.97;2.75;;;;;;;5.95;57.03;101100.91;5081152;28;20038;-80
2022/01/07 02:53:43;;;;;;;3.97;1.85;;;;;;;5.91;57.04;101097.44;5079402;28;20761;-81
2022/01/07 02:56:08;;;;;;;3.83;2.15;;;;;;;6.11;54.73;101096.63;5079921;28;20054;-81
2022/01/07 02:58:34;;;;;;;4.13;1.95;;;;;;;5.86;55.76;101088.81;5079938;28;20035;-81
2022/01/07 03:00:59;;;;;;;5.32;1.95;;;;;;;5.88;55.69;101087.13;5078239;28;20042;-80
2022/01/07 03:03:25;;;;;;;9.23;2.10;;;;;;;6.02;55.76;101087.13;5063919;28;20028;-80
2022/01/07 03:05:50;;;;;;;4.75;1.98;;;;;;;6.03;54.41;101074.25;5084303;28;20034;-81
2022/01/07 03:08:16;;;;;;;4.30;2.25;;;;;;;6.09;55.11;101075.13;5076903;28;20131;-80
2022/01/07 03:10:41;;;;;;;5.00;1.85;;;;;;;6.00;54.10;101074.25;5084416;28;20032;-80
2022/01/07 03:13:08;;;;;;;5.88;2.13;;;;;;;6.20;53.60;101060.53;5081043;28;20512;-81
2022/01/07 03:15:37;;;;;;;3.67;1.60;;;;;;;6.22;54.64;101054.50;5082929;28;20025;-80
2022/01/07 03:18:03;;;;;;;3.53;1.95;;;;;;;6.11;55.77;101055.34;5084379;28;20023;-80
2022/01/07 03:20:29;;;;;;;3.97;1.83;;;;;;;6.11;55.60;101051.06;5082881;28;20043;-81
2022/01/07 03:22:54;;;;;;;5.97;1.90;;;;;;;6.27;54.70;101050.22;5076203;28;20035;-83
2022/01/07 03:25:20;;;;;;;5.22;1.60;;;;;;;5.99;55.60;101049.31;5080582;28;20032;-83
2022/01/07 03:27:46;;;;;;;2.67;2.15;;;;;;;6.02;57.73;101054.47;5079568;28;20038;-82
2022/01/07 03:30:14;;;;;;;3.05;1.55;;;;;;;5.94;56.65;101045.00;5083652;28;20046;-83
2022/01/07 03:32:39;;;;;;;6.07;1.63;;;;;;;6.03;58.53;101043.31;5067155;28;20094;-83
2022/01/07 03:35:09;;;;;;;5.72;1.83;;;;;;;6.03;58.94;101042.47;5083083;28;20138;-83
2022/01/07 03:37:35;;;;;;;7.10;2.05;;;;;;;6.11;56.73;101037.28;5083941;28;20508;-77
2022/01/07 03:40:01;;;;;;;7.82;2.13;;;;;;;6.17;57.73;101039.88;5082138;28;20040;-76
2022/01/07 03:42:26;;;;;;;4.18;2.08;;;;;;;5.78;57.70;101035.50;5080737;28;20484;-76
2022/01/07 03:44:52;;;;;;;3.17;1.70;;;;;;;6.02;57.44;101031.28;5082353;28;20110;-76
2022/01/07 03:47:17;;;;;;;4.57;1.55;;;;;;;6.11;58.13;101037.28;5059121;28;20036;-76
2022/01/07 03:49:43;;;;;;;4.40;2.50;;;;;;;5.85;57.77;101037.25;5063116;28;20055;-76
2022/01/07 03:52:08;;;;;;;7.45;1.83;;;;;;;5.86;58.19;101044.16;5082815;28;20040;-76
2022/01/07 03:54:34;;;;;;;6.75;1.83;;;;;;;5.94;59.05;101034.69;5083928;28;20036;-76
2022/01/07 03:56:59;;;;;;;7.10;1.73;;;;;;;5.79;59.67;101038.09;5085028;28;20055;-77
2022/01/07 03:59:25;;;;;;;6.05;1.65;;;;;;;5.95;58.88;101031.28;5084952;28;20039;-76
2022/01/07 04:01:50;;;;;;;4.40;1.67;;;;;;;6.28;57.64;101025.28;5082982;28;20125;-80
2022/01/07 04:04:16;;;;;;;8.35;2.13;;;;;;;6.00;58.56;101014.09;5081258;28;20039;-80
2022/01/07 04:06:41;;;;;;;3.03;2.30;;;;;;;5.97;58.29;101008.94;5082759;28;20044;-80
2022/01/07 04:09:07;;;;;;;4.72;1.63;;;;;;;6.15;58.50;101002.94;5083386;28;20392;-81
2022/01/07 04:11:32;;;;;;;4.35;1.88;;;;;;;6.23;58.15;100988.31;5082015;28;20055;-80
2022/01/07 04:13:57;;;;;;;2.88;1.70;;;;;;;6.25;57.41;100986.56;5080136;28;20036;-80
2022/01/07 04:16:23;;;;;;;4.88;1.48;;;;;;;6.34;57.89;100976.25;5063292;28;20500;-81
2022/01/07 04:18:48;;;;;;;3.08;1.73;;;;;;;6.14;58.53;100967.66;5062144;28;20036;-81
2022/01/07 04:21:14;;;;;;;5.65;1.90;;;;;;;6.22;57.50;100971.09;5077852;28;20043;-81
2022/01/07 04:23:39;;;;;;;3.47;2.33;;;;;;;6.26;58.20;100967.66;5081983;28;20047;-81
2022/01/07 04:26:04;;;;;;;2.80;1.90;;;;;;;6.02;58.14;100971.09;5082098;28;20040;-81
2022/01/07 04:28:30;;;;;;;4.40;1.60;;;;;;;6.02;58.57;100956.50;5078713;28;20063;-80
2022/01/07 04:30:55;;;;;;;6.40;1.65;;;;;;;6.01;57.81;100957.34;5078397;28;20679;-80
2022/01/07 04:33:25;;;;;;;3.85;1.45;;;;;;;6.23;57.84;100955.63;5061102;28;20520;-81
2022/01/07 04:35:51;;;;;;;7.32;2.00;;;;;;;5.96;58.53;100955.63;5059047;28;20063;-80
2022/01/07 04:38:17;;;;;;;6.97;1.80;;;;;;;6.10;57.45;100947.91;5080629;28;20071;-80
2022/01/07 04:40:42;;;;;;;3.88;1.52;;;;;;;6.00;57.98;100944.47;5068077;28;20048;-81
2022/01/07 04:43:08;;;;;;;3.70;1.60;;;;;;;6.08;57.49;100944.44;5082680;28;20219;-80
2022/01/07 04:45:34;;;;;;;7.65;1.45;;;;;;;6.18;56.12;100930.72;5080755;28;20540;-80
2022/01/07 04:48:00;;;;;;;8.07;1.88;;;;;;;5.98;56.38;100928.09;5087396;28;20027;-81
2022/01/07 04:50:27;;;;;;;5.57;1.60;;;;;;;5.94;57.39;100932.44;5069889;28;20032;-81
2022/01/07 04:52:53;;;;;;;4.53;1.65;;;;;;;5.72;58.04;100932.38;5084383;28;20035;-80
2022/01/07 04:55:24;;;;;;;7.25;1.85;;;;;;;5.79;57.77;100918.66;5083345;28;20032;-80
2022/01/07 04:57:50;;;;;;;5.53;1.38;;;;;;;5.62;57.16;100918.66;5052017;28;20074;-81
2022/01/07 05:00:18;;;;;;;7.53;1.80;;;;;;;5.83;57.14;100916.06;5067981;28;20069;-79
2022/01/07 05:02:44;;;;;;;3.95;1.67;;;;;;;5.92;57.90;100910.94;5079567;28;20028;-81
2022/01/07 05:05:10;;;;;;;6.75;1.73;;;;;;;5.87;57.83;100912.66;5070626;28;20039;-80
2022/01/07 05:07:37;;;;;;;5.47;2.05;;;;;;;6.25;57.12;100899.72;5085447;28;20485;-80
2022/01/07 05:10:07;;;;;;;3.30;1.55;;;;;;;6.32;55.00;100905.75;5085841;28;20032;-80
2022/01/07 05:12:32;;;;;;;3.47;1.45;;;;;;;6.18;57.26;100915.22;5066868;28;20032;-80
2022/01/07 05:14:58;;;;;;;5.57;1.90;;;;;;;6.24;57.29;100917.81;5084241;28;20128;-80
2022/01/07 05:17:24;;;;;;;3.70;1.65;;;;;;;5.96;56.74;100914.38;5085042;28;20043;-80
2022/01/07 05:19:49;;;;;;;2.95;1.60;;;;;;;6.01;58.06;100923.81;5085479;28;20032;-80
2022/01/07 05:22:15;;;;;;;5.13;1.63;;;;;;;5.86;57.47;100912.66;5066415;28;20040;-80
2022/01/07 05:24:41;;;;;;;4.75;1.88;;;;;;;6.05;58.26;100909.22;5066241;28;20042;-80
2022/01/07 05:27:06;;;;;;;5.22;1.77;;;;;;;6.09;57.13;100910.94;5087726;28;20028;-80
2022/01/07 05:29:35;;;;;;;6.93;1.80;;;;;;;5.92;56.88;100910.94;5089304;28;20040;-80
2022/01/07 05:32:01;;;;;;;5.38;1.83;;;;;;;5.82;57.04;100909.22;5065532;28;20028;-79
2022/01/07 05:34:27;;;;;;;5.93;1.50;;;;;;;5.91;55.66;100909.22;5086698;28;20504;-80
2022/01/07 05:36:52;;;;;;;4.65;1.77;;;;;;;6.10;56.44;100909.22;5085807;28;20058;-80
2022/01/07 05:39:18;;;;;;;8.52;1.75;;;;;;;5.86;56.50;100908.34;5086157;28;20024;-83
2022/01/07 05:41:44;;;;;;;4.47;1.85;;;;;;;6.14;56.06;100905.75;5087543;28;20044;-82
2022/01/07 05:44:09;;;;;;;4.45;1.77;;;;;;;6.10;55.43;100904.06;5079871;28;20066;-82
2022/01/07 05:46:34;;;;;;;3.17;1.77;;;;;;;5.93;55.99;100902.34;5087049;28;20093;-82
2022/01/07 05:49:00;;;;;;;3.75;1.05;;;;;;;6.18;55.75;100892.03;5079967;28;20123;-82
2022/01/07 05:51:25;;;;;;;8.10;1.80;;;;;;;6.13;55.99;100893.75;5082320;28;20020;-82
2022/01/07 05:53:51;;;;;;;3.45;1.50;;;;;;;5.98;56.27;100887.72;5086920;28;20079;-83
2022/01/07 05:56:16;;;;;;;7.35;1.60;;;;;;;6.03;54.58;100886.03;5086942;28;20039;-82
2022/01/07 05:58:42;;;;;;;4.15;1.55;;;;;;;6.24;54.45;100881.69;5080807;28;20048;-83
2022/01/07 06:01:10;;;;;;;4.03;1.73;;;;;;;6.12;55.58;100877.41;5086591;28;20521;-82
2022/01/07 06:03:36;;;;;;;3.85;1.45;;;;;;;5.95;55.39;100882.56;5078422;28;20446;-82
2022/01/07 06:06:01;;;;;;;3.85;1.50;;;;;;;6.22;53.39;100873.06;5064902;28;20161;-82
2022/01/07 06:08:27;;;;;;;3.83;1.88;;;;;;;6.12;55.15;100871.38;5083875;28;20119;-83
2022/01/07 06:10:52;;;;;;;3.10;1.75;;;;;;;6.28;54.95;100865.31;5087011;28;20036;-73
2022/01/07 06:13:17;;;;;;;2.97;1.35;;;;;;;6.00;56.72;100873.13;5082063;28;20040;-73
2022/01/07 06:15:43;;;;;;;3.72;1.70;;;;;;;6.05;55.39;100870.53;5083415;28;20493;-73
2022/01/07 06:18:08;;;;;;;6.00;1.85;;;;;;;6.19;55.03;100871.38;5078621;28;20118;-73
2022/01/07 06:20:34;;;;;;;4.95;1.20;;;;;;;6.24;57.47;100872.25;5066896;28;20040;-73
2022/01/07 06:22:59;;;;;;;5.95;1.70;;;;;;;6.27;55.15;100874.81;5085316;28;20032;-73
2022/01/07 06:25:25;;;;;;;4.13;1.83;;;;;;;6.22;56.94;100865.34;5085611;28;20123;-73
2022/01/07 06:27:50;;;;;;;3.58;1.90;;;;;;;6.31;54.96;100862.75;5085243;28;20035;-73
2022/01/07 06:30:16;;;;;;;7.68;1.80;;;;;;;6.45;54.60;100858.44;5085577;28;20016;-74
2022/01/07 06:32:42;;;;;;;6.40;1.50;;;;;;;6.25;56.67;100865.34;5067642;28;20020;-73
2022/01/07 06:35:09;;;;;;;2.60;1.50;;;;;;;6.27;56.12;100868.78;5081961;28;20401;-73
2022/01/07 06:37:35;;;;;;;5.78;1.35;;;;;;;6.11;56.74;100875.69;5083584;28;20043;-73
2022/01/07 06:40:01;;;;;;;5.68;1.27;;;;;;;6.12;56.71;100886.88;5065991;28;20055;-73
2022/01/07 06:42:27;;;;;;;4.10;1.17;;;;;;;6.22;56.22;100879.09;5083539;28;20031;-73
2022/01/07 06:44:52;;;;;;;3.95;1.50;;;;;;;6.49;55.83;100873.06;5081181;28;20033;-73
2022/01/07 06:47:18;;;;;;;5.80;1.88;;;;;;;6.19;56.03;100876.53;5087936;28;20478;-73
2022/01/07 06:49:43;;;;;;;3.15;1.80;;;;;;;6.37;56.38;100878.22;5080277;28;20560;-73
2022/01/07 06:52:09;;;;;;;4.30;1.92;;;;;;;6.18;57.96;100872.25;5081592;28;20044;-76
2022/01/07 06:54:34;;;;;;;2.35;1.48;;;;;;;6.31;57.79;100873.94;5076446;28;20024;-76
2022/01/07 06:56:59;;;;;;;2.60;1.40;;;;;;;6.19;58.50;100876.53;5082533;28;20523;-76
2022/01/07 06:59:25;;;;;;;3.92;1.17;;;;;;;6.15;57.27;100871.38;5064674;28;20059;-76
2022/01/07 07:01:50;;;;;;;6.80;1.98;;;;;;;6.29;57.17;100874.78;5079073;28;20082;-76
2022/01/07 07:04:16;;;;;;;2.40;1.08;;;;;;;5.97;55.96;100877.41;5085370;28;20040;-76
2022/01/07 07:06:43;;;;;;;2.42;1.42;;;;;;;6.04;56.95;100867.09;5084096;28;20035;-76
2022/01/07 07:09:08;;;;;;;3.20;1.58;;;;;;;6.03;56.77;100864.53;5082425;28;20122;-75
2022/01/07 07:11:34;;;;;;;8.70;1.30;;;;;;;6.15;58.61;100864.50;5081750;28;20063;-76
2022/01/07 07:14:00;;;;;;;2.90;1.20;;;;;;;5.99;56.92;100876.56;5084825;28;20111;-76
2022/01/07 07:16:25;;;;;;;2.13;1.20;;;;;;;6.39;56.77;100873.94;5084329;28;20443;-75
2022/01/07 07:18:51;;;;;;;1.75;1.02;;;;;;;6.41;56.67;100870.47;5086174;28;20039;-77
2022/01/07 07:21:16;;;;;;;1.45;1.00;;;;;;;6.33;56.91;100877.38;5086693;28;20054;-76
2022/01/07 07:23:42;;;;;;;2.13;1.38;;;;;;;6.28;57.47;100884.25;5081847;28;20047;-76
2022/01/07 07:26:07;;;;;;;2.65;1.20;;;;;;;6.32;57.42;100882.53;5082386;28;20408;-76
2022/01/07 07:28:37;;;;;;;4.05;1.10;;;;;;;6.27;57.71;100874.81;5065453;28;20417;-76
2022/01/07 07:31:06;;;;;;;1.83;0.85;;;;;;;6.28;58.49;100875.66;5083008;28;20055;-76
2022/01/07 07:34:06;;;;;;;2.40;1.10;;;;;;;6.25;58.64;100879.09;5084486;28;20051;-76
2022/01/07 07:36:27;;;;;;;2.88;1.38;;;;;;;6.32;56.45;100879.94;5081811;28;20039;-77
2022/01/07 07:38:58;;;;;;;3.45;1.10;;;;;;;6.39;58.29;100876.50;5079503;28;20020;-76
2022/01/07 07:41:23;;;;;;;3.13;1.02;;;;;;;6.17;57.04;100869.66;5082676;28;20040;-76
2022/01/07 07:43:51;;;;;;;1.40;0.70;;;;;;;6.29;58.83;100870.50;5045460;28;20151;-76
2022/01/07 07:46:18;;;;;;;2.58;1.13;;;;;;;5.93;57.36;100870.53;5079546;28;20056;-76
2022/01/07 07:48:46;;;;;;;1.83;1.10;;;;;;;6.22;56.53;100867.91;5084322;28;20044;-77
2022/01/07 07:51:12;;;;;;;1.63;0.70;;;;;;;6.14;56.55;100870.53;5080458;28;20486;-77
2022/01/07 07:53:37;;;;;;;2.05;1.02;;;;;;;6.28;57.61;100876.50;5080843;28;20052;-77
2022/01/07 07:56:03;;;;;;;3.05;1.20;;;;;;;6.01;57.21;100855.91;5081833;28;20040;-73
2022/01/07 07:58:29;;;;;;;2.22;0.82;;;;;;;6.39;57.82;100873.94;5083944;28;20664;-74
2022/01/07 08:00:55;;;;;;;4.00;1.05;;;;;;;6.20;57.50;100867.94;5080519;28;20071;-74
2022/01/07 08:03:21;;;;;;;3.13;0.98;;;;;;;6.22;57.56;100866.19;5064761;28;20028;-74
2022/01/07 08:05:47;;;;;;;3.95;0.90;;;;;;;6.40;56.87;100873.91;5062632;28;20052;-73
2022/01/07 08:08:13;;;;;;;2.10;1.10;;;;;;;6.31;57.40;100865.31;5082006;28;20063;-74
2022/01/07 08:10:45;;;;;;;1.00;0.82;;;;;;;6.22;57.15;100862.75;5081242;28;20043;-74
2022/01/07 08:18:24;;;;;;;1.90;0.80;;;;;;;6.31;55.71;100870.47;5084164;28;20083;-74
2022/01/07 08:20:54;;;;;;;1.50;1.13;;;;;;;6.16;56.54;100863.63;5082072;28;20036;-74
2022/01/07 08:23:20;;;;;;;1.77;0.73;;;;;;;6.19;57.77;100871.38;5081356;28;20038;-74
2022/01/07 08:25:46;;;;;;;1.95;0.90;;;;;;;6.32;58.09;100879.94;5079048;28;20075;-74
2022/01/07 08:28:13;;;;;;;2.85;1.00;;;;;;;6.48;56.53;100873.94;5087358;28;20044;-74
2022/01/07 08:30:59;;;;;;;1.08;0.70;;;;;;;6.39;56.67;100868.78;5079113;28;20100;-74
2022/01/07 08:36:16;;;;;;;1.08;0.75;;;;;;;6.30;55.81;100872.22;5050083;28;20043;-76
2022/01/07 08:38:41;;;;;;;1.40;0.85;;;;;;;6.29;57.77;100877.38;5085834;28;20439;-76
2022/01/07 08:41:08;;;;;;;1.65;1.02;;;;;;;6.40;58.43;100876.50;5085240;28;20052;-76
2022/01/07 08:43:33;;;;;;;1.20;0.80;;;;;;;6.33;58.72;100879.97;5087157;28;20028;-80
2022/01/07 08:46:00;;;;;;;1.52;0.60;;;;;;;6.19;58.88;100879.09;5085897;28;20044;-80
2022/01/07 08:48:27;;;;;;;1.25;1.00;;;;;;;6.55;57.15;100871.31;5085053;28;20077;-80
2022/01/07 08:50:53;;;;;;;1.33;0.90;;;;;;;6.03;57.43;100880.00;5085413;28;20039;-80
2022/01/07 08:53:19;;;;;;;1.67;0.90;;;;;;;6.28;59.52;100873.06;5083405;28;20040;-80
2022/01/07 08:55:45;;;;;;;1.13;0.85;;;;;;;6.45;58.18;100863.59;5085427;28;20085;-80
2022/01/07 08:58:11;;;;;;;1.17;0.70;;;;;;;6.35;59.63;100861.88;5079275;28;20047;-80
2022/01/07 09:00:36;;;;;;;1.80;0.60;;;;;;;6.39;60.33;100859.31;5085569;28;20040;-80
2022/01/07 09:03:01;;;;;;;1.13;0.95;;;;;;;6.30;60.20;100869.66;5085642;28;20016;-80
2022/01/07 09:05:27;;;;;;;2.13;0.75;;;;;;;6.52;58.37;100862.72;5086767;28;20063;-80
2022/01/07 09:07:53;;;;;;;0.73;0.65;;;;;;;6.50;59.21;100862.75;5086480;28;20701;-81
2022/01/07 09:10:18;;;;;;;5.78;0.90;;;;;;;6.58;59.69;100855.81;5087111;28;20028;-82
2022/01/07 09:12:45;;;;;;;1.20;0.70;;;;;;;6.55;59.37;100857.56;5048117;28;20044;-82
2022/01/07 09:15:10;;;;;;;1.52;0.80;;;;;;;6.49;59.88;100849.84;5088623;28;20028;-82
2022/01/07 09:17:36;;;;;;;1.52;0.95;;;;;;;6.54;58.85;100848.94;5086447;28;20062;-80
2022/01/07 09:20:04;;;;;;;1.85;0.95;;;;;;;6.49;60.53;100855.00;5086399;28;20028;-80
2022/01/07 09:22:29;;;;;;;0.98;0.60;;;;;;;6.52;58.63;100861.00;5086810;28;20048;-80
2022/01/07 09:24:55;;;;;;;1.10;0.75;;;;;;;6.75;57.77;100852.34;5088419;28;20043;-80
2022/01/07 09:27:20;;;;;;;0.98;0.68;;;;;;;6.49;58.95;100861.00;5083083;28;20044;-80
2022/01/07 09:29:46;;;;;;;1.17;0.80;;;;;;;6.69;58.17;100860.09;5072366;28;20032;-80
2022/01/07 09:32:12;;;;;;;1.33;0.60;;;;;;;6.55;57.83;100865.28;5086840;28;20416;-80
2022/01/07 09:34:38;;;;;;;1.63;0.80;;;;;;;6.53;58.22;100867.91;5089021;28;20508;-80
2022/01/07 09:37:04;;;;;;;1.13;0.80;;;;;;;6.79;58.21;100872.09;5083729;28;20043;-80
2022/01/07 09:39:31;;;;;;;3.97;0.85;;;;;;;6.63;58.05;100870.44;5082859;28;20036;-81
2022/01/07 09:41:58;;;;;;;2.03;0.80;;;;;;;6.58;58.56;100855.81;5084701;28;20164;-80
2022/01/07 09:44:24;;;;;;;0.68;0.47;;;;;;;6.62;57.76;100863.56;5080743;28;20054;-80
2022/01/07 09:47:00;;;;;;;2.63;0.90;;;;;;;6.40;57.77;100858.44;5083216;28;20043;-80
2022/01/07 09:54:48;;;;;;;0.50;0.50;;;;;;;6.68;59.47;100866.13;5127990;23;20067;-81
2022/01/07 09:57:14;;;;;;;0.40;0.40;;;;;;;6.68;59.47;100855.78;5046302;28;20485;-80
2022/01/07 09:59:40;;;;;;;0.60;0.50;;;;;;;6.66;57.99;100844.63;5044137;28;20076;-81
2022/01/07 10:02:08;;;;;;;0.40;0.40;;;;;;;6.49;57.67;100836.94;5046438;28;20096;-80
2022/01/07 10:04:39;;;;;;;1.50;0.65;;;;;;;6.49;58.20;100839.50;5041673;28;20083;-80
2022/01/07 10:07:20;;;;;;;0.85;0.50;;;;;;;6.55;57.69;100842.06;5053762;28;20079;-80
2022/01/07 10:10:07;;;;;;;1.02;0.30;;;;;;;6.55;57.15;100839.50;5046497;28;20049;-81
2022/01/07 10:12:55;;;;;;;0.70;0.57;;;;;;;6.60;57.57;100842.06;5048703;28;20589;-81
2022/01/07 10:15:23;;;;;;;1.25;0.50;;;;;;;6.50;57.92;100838.66;5033591;28;20040;-80
2022/01/07 10:17:56;;;;;;;1.02;0.57;;;;;;;6.80;58.52;100837.69;5049139;28;21290;-80
2022/01/07 10:20:37;;;;;;;0.73;0.50;;;;;;;6.62;58.89;100830.88;5040507;28;20033;-81
2022/01/07 10:23:03;;;;;;;1.38;0.50;;;;;;;6.79;57.55;100821.31;5044881;28;20040;-81
2022/01/07 10:25:34;;;;;;;0.90;0.63;;;;;;;6.65;58.65;100828.28;5048969;28;20048;-81
2022/01/07 10:28:19;;;;;;;1.60;1.00;;;;;;;6.75;57.68;100822.19;5045818;28;20053;-81
2022/01/07 10:30:51;;;;;;;2.55;1.20;;;;;;;6.84;57.76;100821.31;5049431;28;20043;-81
2022/01/07 10:33:28;;;;;;;1.15;0.63;;;;;;;6.38;57.18;100808.56;5030641;28;20094;-79
2022/01/07 10:36:06;;;;;;;0.82;0.60;;;;;;;6.74;57.95;100801.56;5051887;28;20120;-81
2022/01/07 10:38:33;;;;;;;0.82;0.70;;;;;;;6.90;57.15;100801.47;5048280;28;20086;-81
2022/01/07 10:41:00;;;;;;;1.17;0.60;;;;;;;6.85;58.45;100813.56;5046961;28;21325;-81
2022/01/07 10:43:30;;;;;;;0.60;0.40;;;;;;;6.82;58.02;100813.56;5028285;28;20057;-81
2022/01/07 10:46:16;;;;;;;0.65;0.50;;;;;;;6.93;57.72;100811.78;5030756;28;20440;-80
2022/01/07 10:48:53;;;;;;;0.90;0.40;;;;;;;7.04;56.48;100799.69;5028583;28;20040;-81
2022/01/07 10:51:30;;;;;;;0.63;0.50;;;;;;;6.80;56.13;100783.47;5042630;28;20126;-81
2022/01/07 10:53:57;;;;;;;0.45;0.45;;;;;;;6.69;57.70;100793.84;5012298;28;20033;-81
2022/01/07 10:56:33;;;;;;;0.63;0.40;;;;;;;6.87;57.23;100790.31;5044594;28;20044;-81
2022/01/07 10:59:00;;;;;;;0.75;0.50;;;;;;;6.91;57.59;100790.28;5036731;28;20030;-80
2022/01/07 11:01:27;;;;;;;0.75;0.47;;;;;;;6.99;56.45;100788.50;5036760;28;20079;-81
2022/01/07 11:03:57;;;;;;;0.98;0.50;;;;;;;7.14;56.02;100797.88;5048456;28;20385;-80
2022/01/07 11:06:24;;;;;;;0.40;0.40;;;;;;;7.05;58.28;100800.50;5046472;28;20037;-81
2022/01/07 11:08:51;;;;;;;0.55;0.40;;;;;;;6.96;57.47;100796.25;5042872;28;20108;-81
2022/01/07 11:11:23;;;;;;;1.60;0.50;;;;;;;7.11;57.19;100787.56;5040392;28;20033;-81
2022/01/07 11:13:49;;;;;;;0.95;0.50;;;;;;;7.14;56.11;100792.72;5040654;28;20045;-81
2022/01/07 11:16:16;;;;;;;0.30;0.30;;;;;;;7.08;57.53;100797.91;5045744;28;20029;-80
2022/01/07 11:18:43;;;;;;;0.30;0.30;;;;;;;6.82;57.06;100799.78;5046830;28;20040;-80
2022/01/07 11:21:10;;;;;;;1.40;0.50;;;;;;;6.98;57.62;100791.09;5048384;28;20056;-80
2022/01/07 11:23:41;;;;;;;1.52;0.50;;;;;;;7.06;57.63;100785.03;5048068;28;20123;-80
2022/01/07 11:26:11;;;;;;;2.00;0.50;;;;;;;7.14;55.48;100779.78;5047703;28;20389;-80
2022/01/07 11:28:54;;;;;;;2.45;0.70;;;;;;;6.94;57.06;100777.34;5038851;28;20045;-80
2022/01/07 11:31:22;;;;;;;0.75;0.50;;;;;;;7.04;56.29;100773.00;5048004;28;20043;-79
2022/01/07 11:34:07;;;;;;;0.98;0.50;;;;;;;7.20;55.64;100766.84;5043695;28;20037;-79
2022/01/07 11:36:37;;;;;;;0.68;0.50;;;;;;;6.85;56.26;100776.53;5039033;28;20455;-80
2022/01/07 11:39:04;;;;;;;0.75;0.50;;;;;;;6.77;55.99;100778.31;5040207;28;20085;-80
2022/01/07 11:41:44;;;;;;;0.47;0.43;;;;;;;6.90;56.46;100775.63;5044700;28;20331;-79
2022/01/07 11:44:13;;;;;;;0.85;0.60;;;;;;;6.89;57.20;100768.78;5040066;28;20500;-80
2022/01/07 11:46:38;;;;;;;0.70;0.57;;;;;;;7.12;55.37;100773.78;5029802;28;20424;-80